This is the latest recevied weather packets stored in our database for station/object kj4yre. If no packets are shown the sender has not sent any weather packets the latest 10 day(s).
| Time | Temp. | Humidity | Pressure | Rain* | Wind** | Luminosity | Snow |
|---|---|---|---|---|---|---|---|
| 1777576336 | 22.78° C | 52% | 1008.8 hPa | 0 mm | - | - | - |
| 1777574535 | 22.78° C | 53% | 1009.1 hPa | 0 mm | - | - | - |
| 1777573938 | 22.78° C | 54% | 1009.2 hPa | 0 mm | - | - | - |
| 1777572436 | 22.22° C | 56% | 1009.6 hPa | 0 mm | - | - | - |
| 1777568535 | 21.11° C | 61% | 1009.9 hPa | 0 mm | - | - | - |
| 1777566436 | 19.44° C | 70% | 1010.3 hPa | 0 mm | - | - | - |
| 1777564934 | 18.33° C | 69% | 1010.6 hPa | 0 mm | - | - | - |
| 1777562835 | 17.78° C | 71% | 1010.7 hPa | 0 mm | - | - | - |
| 1777562235 | 17.22° C | 75% | 1010.9 hPa | 0 mm | - | - | - |
| 1777561934 | 17.22° C | 71% | 1010.6 hPa | 0 mm | - | - | - |
| 1777561035 | 17.22° C | 76% | 1010.6 hPa | 0 mm | - | - | - |
| 1777560435 | 17.22° C | 76% | 1010.7 hPa | 0 mm | - | - | - |
| 1777559536 | 16.67° C | 80% | 1010.8 hPa | 0 mm | - | - | - |
| 1777558936 | 16.67° C | 79% | 1010.6 hPa | 0 mm | - | - | - |
| 1777553237 | 15.56° C | 88% | 1010 hPa | 0 mm | - | - | - |
| 1777552335 | 15.56° C | 91% | 1009.9 hPa | 0 mm | - | - | - |
| 1777551434 | 15° C | 95% | 1009.9 hPa | 0 mm | - | - | - |
| 1777550836 | 15° C | 94% | 1010.2 hPa | 0 mm | - | - | - |
| 1777550537 | 15° C | 93% | 1010.2 hPa | 0 mm | - | - | - |
| 1777546937 | 14.44° C | 100% | 1008.2 hPa | 0 mm | - | - | - |
| 1777546337 | 14.44° C | 100% | 1007.8 hPa | 0 mm | - | - | - |
| 1777545138 | 14.44° C | 100% | 1007.3 hPa | 0 mm | - | - | - |
| 1777544835 | 14.44° C | 100% | 1007.3 hPa | 0 mm | - | - | - |
| 1777544235 | 15° C | 100% | 1007.4 hPa | 0 mm | - | - | - |
| 1777543936 | 15° C | 100% | 1007.4 hPa | 0 mm | - | - | - |
* Rain latest hour (hover to see other rain measurements)
** Current wind speed in m/s (hover to see current wind gust speed)